메인 페이지
METAR-TAF:

METAR-TAF

공항 :

위니펙, 매니토바, 캐나다

위도: 49-54N, 경도: 097-14W, 고도: 239m

현재 날씨관측

예보는 55분 전, 08:00시(UTC)에 발표되었습니다.
4kt
온도 -7°C
습도 93%
기압 1015 hPa
시정: 24.1km
고도 1800ft 상공 흐림

METAR: CYWG 210800Z 01004KT 15SM OVC018 M07/M08 A2998 RMK SC8 SLP170

시각: 02:55 (08:55 UTC)

예보

예보는 3 시간 16분 전, 05:39시(UTC)에 발표되었습니다.
예보 대상 시간: 21일 06시부터 22일 06시까지 (UTC)
6kt
시정: 10km
고도 600ft 상공 구름 보통
고도 4000ft 상공 흐림
일시적
21일 06시부터 21일 16시까지 (UTC)
시정: 3.2km
고도 600ft 상공 구름 많음
고도 2000ft 상공 흐림
박무
전환 중
21일 06시부터 21일 08시까지 (UTC)
10kt
21일 1700시부터 (UTC)
8kt
시정: 10km
고도 2500ft 상공 구름 보통
일시적
21일 17시부터 22일 03시까지 (UTC)
고도 2500ft 상공 구름 많음
22일 0300시부터 (UTC)
6kt
시정: 10km
고도 2500ft 상공 구름 많음
일시적
22일 03시부터 22일 06시까지 (UTC)
고도 600ft 상공 구름 보통
고도 2000ft 상공 구름 많음

TAF: CYWG 210539Z 2106/2206 01006KT P6SM SCT006 OVC040 TEMPO 2106/2116 2SM BR BKN006 OVC020 BECMG 2106/2108 36010KT FM211700 36008KT P6SM SCT025 TEMPO 2117/2203 BKN025 FM220300 08006KT P6SM BKN025 TEMPO 2203/2206 SCT006 BKN020 RMK NXT FCST BY 211200Z

4,000개 이상의 공항 관측 자료 및 예보 (METAR 및 TAF 보고).

지도상에서 검색 가능한 기상관측소가 노란 점과 빨간 점으로 표시되어 있습니다.

기상관측소 명을 보려면 표시 위로 마우스를 이동하세요.

날씨 관측과 예보를 보려면 클릭하세요.

지도 변경 : 확대하려면 엑스 표시가 있는 녹색 버튼, 축소하려면 빼기 표시가 있는 녹색 버튼, 다음 페이지의 지도를 보려면 녹색 화살표를 클릭하세요.


METAR-TAF: